sensor_id;sensor_type;location;lat;lon;timestamp;P1;P2;P0
64229;PMS5003;50547;49.498;0.092;2023-04-24T00:00:03;8;8;
64229;PMS5003;50547;49.498;0.092;2023-04-24T00:02:33;10;10;
64229;PMS5003;50547;49.498;0.092;2023-04-24T00:04:59;8;8;
64229;PMS5003;50547;49.498;0.092;2023-04-24T00:07:28;10;10;
64229;PMS5003;50547;49.498;0.092;2023-04-24T00:09:57;10;10;
64229;PMS5003;50547;49.498;0.092;2023-04-24T00:12:23;8;8;
64229;PMS5003;50547;49.498;0.092;2023-04-24T00:14:53;7;7;
64229;PMS5003;50547;49.498;0.092;2023-04-24T00:17:19;7;7;
64229;PMS5003;50547;49.498;0.092;2023-04-24T00:19:48;8;8;
64229;PMS5003;50547;49.498;0.092;2023-04-24T00:22:18;9;9;
64229;PMS5003;50547;49.498;0.092;2023-04-24T00:24:47;8;8;
64229;PMS5003;50547;49.498;0.092;2023-04-24T00:27:16;8;8;
64229;PMS5003;50547;49.498;0.092;2023-04-24T00:29:45;9;9;
64229;PMS5003;50547;49.498;0.092;2023-04-24T00:32:11;10;10;
64229;PMS5003;50547;49.498;0.092;2023-04-24T00:34:41;10;10;
64229;PMS5003;50547;49.498;0.092;2023-04-24T00:37:07;10;10;
64229;PMS5003;50547;49.498;0.092;2023-04-24T00:39:36;10;10;
64229;PMS5003;50547;49.498;0.092;2023-04-24T00:42:05;10;10;
64229;PMS5003;50547;49.498;0.092;2023-04-24T00:44:35;10;10;
64229;PMS5003;50547;49.498;0.092;2023-04-24T00:47:05;10;10;
64229;PMS5003;50547;49.498;0.092;2023-04-24T00:49:34;10;10;
64229;PMS5003;50547;49.498;0.092;2023-04-24T00:52:04;10;10;
64229;PMS5003;50547;49.498;0.092;2023-04-24T00:54:34;10;10;
64229;PMS5003;50547;49.498;0.092;2023-04-24T00:56:59;10;10;
64229;PMS5003;50547;49.498;0.092;2023-04-24T00:59:29;10;10;
64229;PMS5003;50547;49.498;0.092;2023-04-24T01:01:58;10;10;
64229;PMS5003;50547;49.498;0.092;2023-04-24T01:04:28;10;10;
64229;PMS5003;50547;49.498;0.092;2023-04-24T01:06:57;10;10;
64229;PMS5003;50547;49.498;0.092;2023-04-24T01:09:26;10;10;
64229;PMS5003;50547;49.498;0.092;2023-04-24T01:11:55;10;10;
64229;PMS5003;50547;49.498;0.092;2023-04-24T01:14:30;11;11;
64229;PMS5003;50547;49.498;0.092;2023-04-24T01:16:59;11;11;
64229;PMS5003;50547;49.498;0.092;2023-04-24T01:19:29;11;11;
64229;PMS5003;50547;49.498;0.092;2023-04-24T01:21:58;11;11;
64229;PMS5003;50547;49.498;0.092;2023-04-24T01:24:30;11;11;
64229;PMS5003;50547;49.498;0.092;2023-04-24T01:26:59;10;10;
64229;PMS5003;50547;49.498;0.092;2023-04-24T01:29:29;11;11;
64229;PMS5003;50547;49.498;0.092;2023-04-24T01:31:58;11;11;
64229;PMS5003;50547;49.498;0.092;2023-04-24T01:34:27;11;11;
64229;PMS5003;50547;49.498;0.092;2023-04-24T01:36:56;11;11;
64229;PMS5003;50547;49.498;0.092;2023-04-24T01:39:26;11;11;
64229;PMS5003;50547;49.498;0.092;2023-04-24T01:41:55;12;12;
64229;PMS5003;50547;49.498;0.092;2023-04-24T01:44:25;11;11;
64229;PMS5003;50547;49.498;0.092;2023-04-24T01:46:55;11;11;
64229;PMS5003;50547;49.498;0.092;2023-04-24T01:49:24;13;13;
64229;PMS5003;50547;49.498;0.092;2023-04-24T01:51:54;13;13;
64229;PMS5003;50547;49.498;0.092;2023-04-24T01:54:23;13;13;
64229;PMS5003;50547;49.498;0.092;2023-04-24T01:56:52;11;11;
64229;PMS5003;50547;49.498;0.092;2023-04-24T01:59:19;11;11;
64229;PMS5003;50547;49.498;0.092;2023-04-24T02:01:50;11;11;
64229;PMS5003;50547;49.498;0.092;2023-04-24T02:04:19;11;11;
64229;PMS5003;50547;49.498;0.092;2023-04-24T02:06:48;13;13;
64229;PMS5003;50547;49.498;0.092;2023-04-24T02:09:17;11;11;
64229;PMS5003;50547;49.498;0.092;2023-04-24T02:11:46;11;11;
64229;PMS5003;50547;49.498;0.092;2023-04-24T02:14:15;13;13;
64229;PMS5003;50547;49.498;0.092;2023-04-24T02:16:45;13;13;
64229;PMS5003;50547;49.498;0.092;2023-04-24T02:19:14;13;13;
64229;PMS5003;50547;49.498;0.092;2023-04-24T02:21:43;13;13;
64229;PMS5003;50547;49.498;0.092;2023-04-24T02:24:12;13;13;
64229;PMS5003;50547;49.498;0.092;2023-04-24T02:26:41;13;13;
64229;PMS5003;50547;49.498;0.092;2023-04-24T02:29:10;14;14;
64229;PMS5003;50547;49.498;0.092;2023-04-24T02:31:39;14;14;
64229;PMS5003;50547;49.498;0.092;2023-04-24T02:34:08;13;13;
64229;PMS5003;50547;49.498;0.092;2023-04-24T02:36:38;13;13;
64229;PMS5003;50547;49.498;0.092;2023-04-24T02:39:07;13;13;
64229;PMS5003;50547;49.498;0.092;2023-04-24T02:41:36;15;14;
64229;PMS5003;50547;49.498;0.092;2023-04-24T02:44:05;14;14;
64229;PMS5003;50547;49.498;0.092;2023-04-24T02:46:34;14;14;
64229;PMS5003;50547;49.498;0.092;2023-04-24T02:49:03;14;14;
64229;PMS5003;50547;49.498;0.092;2023-04-24T02:51:32;14;14;
64229;PMS5003;50547;49.498;0.092;2023-04-24T02:54:01;13;13;
64229;PMS5003;50547;49.498;0.092;2023-04-24T02:56:30;13;13;
64229;PMS5003;50547;49.498;0.092;2023-04-24T02:58:59;14;14;
64229;PMS5003;50547;49.498;0.092;2023-04-24T03:01:29;14;14;
64229;PMS5003;50547;49.498;0.092;2023-04-24T03:03:58;14;14;
64229;PMS5003;50547;49.498;0.092;2023-04-24T03:06:27;15;14;
64229;PMS5003;50547;49.498;0.092;2023-04-24T03:08:56;15;14;
64229;PMS5003;50547;49.498;0.092;2023-04-24T03:11:25;15;14;
64229;PMS5003;50547;49.498;0.092;2023-04-24T03:13:55;14;14;
64229;PMS5003;50547;49.498;0.092;2023-04-24T03:16:24;18;16;
64229;PMS5003;50547;49.498;0.092;2023-04-24T03:18:53;18;16;
64229;PMS5003;50547;49.498;0.092;2023-04-24T03:21:22;18;16;
64229;PMS5003;50547;49.498;0.092;2023-04-24T03:23:51;18;16;
64229;PMS5003;50547;49.498;0.092;2023-04-24T03:26:20;18;16;
64229;PMS5003;50547;49.498;0.092;2023-04-24T03:28:49;18;16;
64229;PMS5003;50547;49.498;0.092;2023-04-24T03:31:19;18;16;
64229;PMS5003;50547;49.498;0.092;2023-04-24T03:33:48;19;17;
64229;PMS5003;50547;49.498;0.092;2023-04-24T03:36:17;18;16;
64229;PMS5003;50547;49.498;0.092;2023-04-24T03:38:46;18;16;
64229;PMS5003;50547;49.498;0.092;2023-04-24T03:41:15;18;16;
64229;PMS5003;50547;49.498;0.092;2023-04-24T03:43:44;18;16;
64229;PMS5003;50547;49.498;0.092;2023-04-24T03:46:13;18;16;
64229;PMS5003;50547;49.498;0.092;2023-04-24T03:48:43;18;16;
64229;PMS5003;50547;49.498;0.092;2023-04-24T03:51:12;18;16;
64229;PMS5003;50547;49.498;0.092;2023-04-24T03:53:41;15;14;
64229;PMS5003;50547;49.498;0.092;2023-04-24T03:56:10;17;15;
64229;PMS5003;50547;49.498;0.092;2023-04-24T03:58:39;18;16;
64229;PMS5003;50547;49.498;0.092;2023-04-24T04:01:08;18;16;
64229;PMS5003;50547;49.498;0.092;2023-04-24T04:03:37;18;16;
64229;PMS5003;50547;49.498;0.092;2023-04-24T04:06:07;18;16;
64229;PMS5003;50547;49.498;0.092;2023-04-24T04:08:32;17;15;
64229;PMS5003;50547;49.498;0.092;2023-04-24T04:11:01;17;15;
64229;PMS5003;50547;49.498;0.092;2023-04-24T04:13:31;18;16;
64229;PMS5003;50547;49.498;0.092;2023-04-24T04:16:00;18;16;
64229;PMS5003;50547;49.498;0.092;2023-04-24T04:18:29;15;14;
64229;PMS5003;50547;49.498;0.092;2023-04-24T04:20:58;14;14;
64229;PMS5003;50547;49.498;0.092;2023-04-24T04:23:27;14;14;
64229;PMS5003;50547;49.498;0.092;2023-04-24T04:25:56;14;14;
64229;PMS5003;50547;49.498;0.092;2023-04-24T04:28:26;14;14;
64229;PMS5003;50547;49.498;0.092;2023-04-24T04:30:55;13;13;
64229;PMS5003;50547;49.498;0.092;2023-04-24T04:33:24;14;14;
64229;PMS5003;50547;49.498;0.092;2023-04-24T04:35:53;14;14;
64229;PMS5003;50547;49.498;0.092;2023-04-24T04:38:23;13;13;
64229;PMS5003;50547;49.498;0.092;2023-04-24T04:40:52;14;14;
64229;PMS5003;50547;49.498;0.092;2023-04-24T04:43:21;13;13;
64229;PMS5003;50547;49.498;0.092;2023-04-24T04:45:50;13;13;
64229;PMS5003;50547;49.498;0.092;2023-04-24T04:48:20;14;14;
64229;PMS5003;50547;49.498;0.092;2023-04-24T04:50:49;14;14;
64229;PMS5003;50547;49.498;0.092;2023-04-24T04:53:18;14;14;
64229;PMS5003;50547;49.498;0.092;2023-04-24T04:55:47;14;14;
64229;PMS5003;50547;49.498;0.092;2023-04-24T04:58:17;13;13;
64229;PMS5003;50547;49.498;0.092;2023-04-24T05:00:46;13;13;
64229;PMS5003;50547;49.498;0.092;2023-04-24T05:03:15;14;14;
64229;PMS5003;50547;49.498;0.092;2023-04-24T05:05:44;15;14;
64229;PMS5003;50547;49.498;0.092;2023-04-24T05:08:13;14;14;
64229;PMS5003;50547;49.498;0.092;2023-04-24T05:10:42;14;14;
64229;PMS5003;50547;49.498;0.092;2023-04-24T05:13:11;14;14;
64229;PMS5003;50547;49.498;0.092;2023-04-24T05:15:40;13;13;
64229;PMS5003;50547;49.498;0.092;2023-04-24T05:18:09;13;13;
64229;PMS5003;50547;49.498;0.092;2023-04-24T05:20:39;13;13;
64229;PMS5003;50547;49.498;0.092;2023-04-24T05:23:08;13;13;
64229;PMS5003;50547;49.498;0.092;2023-04-24T05:25:37;11;11;
64229;PMS5003;50547;49.498;0.092;2023-04-24T05:28:06;13;13;
64229;PMS5003;50547;49.498;0.092;2023-04-24T05:30:35;13;13;
64229;PMS5003;50547;49.498;0.092;2023-04-24T05:33:05;13;13;
64229;PMS5003;50547;49.498;0.092;2023-04-24T05:35:34;11;11;
64229;PMS5003;50547;49.498;0.092;2023-04-24T05:38:03;11;11;
64229;PMS5003;50547;49.498;0.092;2023-04-24T05:40:32;11;11;
64229;PMS5003;50547;49.498;0.092;2023-04-24T05:43:01;13;13;
64229;PMS5003;50547;49.498;0.092;2023-04-24T05:45:30;11;11;
64229;PMS5003;50547;49.498;0.092;2023-04-24T05:47:59;11;11;
64229;PMS5003;50547;49.498;0.092;2023-04-24T05:50:29;13;13;
64229;PMS5003;50547;49.498;0.092;2023-04-24T05:52:58;12;12;
64229;PMS5003;50547;49.498;0.092;2023-04-24T05:55:27;13;13;
64229;PMS5003;50547;49.498;0.092;2023-04-24T05:57:56;13;13;
64229;PMS5003;50547;49.498;0.092;2023-04-24T06:00:26;13;13;
64229;PMS5003;50547;49.498;0.092;2023-04-24T06:02:55;13;13;
64229;PMS5003;50547;49.498;0.092;2023-04-24T06:05:24;13;13;
64229;PMS5003;50547;49.498;0.092;2023-04-24T06:07:53;13;13;
64229;PMS5003;50547;49.498;0.092;2023-04-24T06:10:23;14;14;
64229;PMS5003;50547;49.498;0.092;2023-04-24T06:12:52;13;13;
64229;PMS5003;50547;49.498;0.092;2023-04-24T06:15:21;14;14;
64229;PMS5003;50547;49.498;0.092;2023-04-24T06:17:50;13;13;
64229;PMS5003;50547;49.498;0.092;2023-04-24T06:20:19;14;14;
64229;PMS5003;50547;49.498;0.092;2023-04-24T06:22:49;14;14;
64229;PMS5003;50547;49.498;0.092;2023-04-24T06:25:18;14;14;
64229;PMS5003;50547;49.498;0.092;2023-04-24T06:27:47;14;14;
64229;PMS5003;50547;49.498;0.092;2023-04-24T06:30:16;13;13;
64229;PMS5003;50547;49.498;0.092;2023-04-24T06:32:45;13;13;
64229;PMS5003;50547;49.498;0.092;2023-04-24T06:35:14;13;13;
64229;PMS5003;50547;49.498;0.092;2023-04-24T06:37:44;13;13;
64229;PMS5003;50547;49.498;0.092;2023-04-24T06:40:13;13;13;
64229;PMS5003;50547;49.498;0.092;2023-04-24T06:42:42;13;13;
64229;PMS5003;50547;49.498;0.092;2023-04-24T06:45:11;14;14;
64229;PMS5003;50547;49.498;0.092;2023-04-24T06:47:40;13;13;
64229;PMS5003;50547;49.498;0.092;2023-04-24T06:50:10;14;14;
64229;PMS5003;50547;49.498;0.092;2023-04-24T06:52:39;14;14;
64229;PMS5003;50547;49.498;0.092;2023-04-24T06:55:09;14;14;
64229;PMS5003;50547;49.498;0.092;2023-04-24T06:57:38;17;15;
64229;PMS5003;50547;49.498;0.092;2023-04-24T07:00:08;15;14;
64229;PMS5003;50547;49.498;0.092;2023-04-24T07:02:38;15;14;
64229;PMS5003;50547;49.498;0.092;2023-04-24T07:05:07;15;14;
64229;PMS5003;50547;49.498;0.092;2023-04-24T07:07:37;18;16;
64229;PMS5003;50547;49.498;0.092;2023-04-24T07:10:06;15;14;
64229;PMS5003;50547;49.498;0.092;2023-04-24T07:12:36;14;14;
64229;PMS5003;50547;49.498;0.092;2023-04-24T07:15:06;15;14;
64229;PMS5003;50547;49.498;0.092;2023-04-24T07:17:36;15;14;
64229;PMS5003;50547;49.498;0.092;2023-04-24T07:20:05;14;14;
64229;PMS5003;50547;49.498;0.092;2023-04-24T07:22:35;13;13;
64229;PMS5003;50547;49.498;0.092;2023-04-24T07:25:05;14;14;
64229;PMS5003;50547;49.498;0.092;2023-04-24T07:27:34;14;14;
64229;PMS5003;50547;49.498;0.092;2023-04-24T07:30:04;14;14;
64229;PMS5003;50547;49.498;0.092;2023-04-24T07:32:34;15;14;
64229;PMS5003;50547;49.498;0.092;2023-04-24T07:35:04;13;13;
64229;PMS5003;50547;49.498;0.092;2023-04-24T07:37:33;13;13;
64229;PMS5003;50547;49.498;0.092;2023-04-24T07:40:03;13;13;
64229;PMS5003;50547;49.498;0.092;2023-04-24T07:42:33;13;13;
64229;PMS5003;50547;49.498;0.092;2023-04-24T07:45:07;11;11;
64229;PMS5003;50547;49.498;0.092;2023-04-24T07:47:36;13;13;
64229;PMS5003;50547;49.498;0.092;2023-04-24T07:50:06;13;13;
64229;PMS5003;50547;49.498;0.092;2023-04-24T07:52:35;11;11;
64229;PMS5003;50547;49.498;0.092;2023-04-24T07:55:05;11;11;
64229;PMS5003;50547;49.498;0.092;2023-04-24T07:57:34;11;11;
64229;PMS5003;50547;49.498;0.092;2023-04-24T08:00:04;11;11;
64229;PMS5003;50547;49.498;0.092;2023-04-24T08:02:34;11;11;
64229;PMS5003;50547;49.498;0.092;2023-04-24T08:05:03;11;11;
64229;PMS5003;50547;49.498;0.092;2023-04-24T08:07:34;11;11;
64229;PMS5003;50547;49.498;0.092;2023-04-24T08:10:03;11;11;
64229;PMS5003;50547;49.498;0.092;2023-04-24T08:12:33;11;11;
64229;PMS5003;50547;49.498;0.092;2023-04-24T08:15:03;11;11;
64229;PMS5003;50547;49.498;0.092;2023-04-24T08:17:33;11;11;
64229;PMS5003;50547;49.498;0.092;2023-04-24T08:20:02;11;11;
64229;PMS5003;50547;49.498;0.092;2023-04-24T08:22:32;11;11;
64229;PMS5003;50547;49.498;0.092;2023-04-24T08:25:01;11;11;
64229;PMS5003;50547;49.498;0.092;2023-04-24T08:27:31;11;11;
64229;PMS5003;50547;49.498;0.092;2023-04-24T08:30:00;11;11;
64229;PMS5003;50547;49.498;0.092;2023-04-24T08:32:29;11;11;
64229;PMS5003;50547;49.498;0.092;2023-04-24T08:34:59;11;11;
64229;PMS5003;50547;49.498;0.092;2023-04-24T08:37:28;11;11;
64229;PMS5003;50547;49.498;0.092;2023-04-24T08:39:57;11;11;
64229;PMS5003;50547;49.498;0.092;2023-04-24T08:42:26;11;11;
64229;PMS5003;50547;49.498;0.092;2023-04-24T08:44:57;11;11;
64229;PMS5003;50547;49.498;0.092;2023-04-24T08:47:26;13;13;
64229;PMS5003;50547;49.498;0.092;2023-04-24T08:49:57;13;13;
64229;PMS5003;50547;49.498;0.092;2023-04-24T08:52:27;13;13;
64229;PMS5003;50547;49.498;0.092;2023-04-24T08:54:57;13;13;
64229;PMS5003;50547;49.498;0.092;2023-04-24T08:57:27;13;13;
64229;PMS5003;50547;49.498;0.092;2023-04-24T08:59:56;13;13;
64229;PMS5003;50547;49.498;0.092;2023-04-24T09:02:27;13;13;
64229;PMS5003;50547;49.498;0.092;2023-04-24T09:04:57;13;13;
64229;PMS5003;50547;49.498;0.092;2023-04-24T09:07:26;13;13;
64229;PMS5003;50547;49.498;0.092;2023-04-24T09:09:55;13;13;
64229;PMS5003;50547;49.498;0.092;2023-04-24T09:12:22;13;13;
64229;PMS5003;50547;49.498;0.092;2023-04-24T09:14:51;13;13;
64229;PMS5003;50547;49.498;0.092;2023-04-24T09:17:22;13;13;
64229;PMS5003;50547;49.498;0.092;2023-04-24T09:19:51;13;13;
64229;PMS5003;50547;49.498;0.092;2023-04-24T09:22:20;11;11;
64229;PMS5003;50547;49.498;0.092;2023-04-24T09:24:59;13;13;
64229;PMS5003;50547;49.498;0.092;2023-04-24T09:27:30;13;13;
64229;PMS5003;50547;49.498;0.092;2023-04-24T09:30:00;13;13;
64229;PMS5003;50547;49.498;0.092;2023-04-24T09:32:30;13;13;
64229;PMS5003;50547;49.498;0.092;2023-04-24T09:35:07;11;11;
64229;PMS5003;50547;49.498;0.092;2023-04-24T09:37:39;13;13;
64229;PMS5003;50547;49.498;0.092;2023-04-24T09:40:11;13;13;
64229;PMS5003;50547;49.498;0.092;2023-04-24T09:42:43;11;11;
64229;PMS5003;50547;49.498;0.092;2023-04-24T09:45:13;12;12;
64229;PMS5003;50547;49.498;0.092;2023-04-24T09:47:43;11;11;
64229;PMS5003;50547;49.498;0.092;2023-04-24T09:50:13;11;11;
64229;PMS5003;50547;49.498;0.092;2023-04-24T09:52:44;12;12;
64229;PMS5003;50547;49.498;0.092;2023-04-24T09:55:17;11;11;
64229;PMS5003;50547;49.498;0.092;2023-04-24T09:57:48;11;11;
64229;PMS5003;50547;49.498;0.092;2023-04-24T10:00:19;13;13;
64229;PMS5003;50547;49.498;0.092;2023-04-24T10:02:50;11;11;
64229;PMS5003;50547;49.498;0.092;2023-04-24T10:05:23;11;11;
64229;PMS5003;50547;49.498;0.092;2023-04-24T10:07:55;11;11;
64229;PMS5003;50547;49.498;0.092;2023-04-24T10:10:25;13;13;
64229;PMS5003;50547;49.498;0.092;2023-04-24T10:12:55;11;11;
64229;PMS5003;50547;49.498;0.092;2023-04-24T10:15:24;11;11;
64229;PMS5003;50547;49.498;0.092;2023-04-24T10:17:55;11;11;
64229;PMS5003;50547;49.498;0.092;2023-04-24T10:20:27;11;11;
64229;PMS5003;50547;49.498;0.092;2023-04-24T10:22:58;11;11;
64229;PMS5003;50547;49.498;0.092;2023-04-24T10:25:29;11;11;
64229;PMS5003;50547;49.498;0.092;2023-04-24T10:28:00;10;10;
64229;PMS5003;50547;49.498;0.092;2023-04-24T10:30:31;10;10;
64229;PMS5003;50547;49.498;0.092;2023-04-24T10:33:02;10;10;
64229;PMS5003;50547;49.498;0.092;2023-04-24T10:35:32;10;10;
64229;PMS5003;50547;49.498;0.092;2023-04-24T10:38:05;10;10;
64229;PMS5003;50547;49.498;0.092;2023-04-24T10:40:37;10;10;
64229;PMS5003;50547;49.498;0.092;2023-04-24T10:43:07;10;10;
64229;PMS5003;50547;49.498;0.092;2023-04-24T10:45:37;10;10;
64229;PMS5003;50547;49.498;0.092;2023-04-24T10:48:07;10;10;
64229;PMS5003;50547;49.498;0.092;2023-04-24T10:50:44;10;10;
64229;PMS5003;50547;49.498;0.092;2023-04-24T10:53:16;10;10;
64229;PMS5003;50547;49.498;0.092;2023-04-24T10:55:47;10;10;
64229;PMS5003;50547;49.498;0.092;2023-04-24T10:58:21;10;10;
64229;PMS5003;50547;49.498;0.092;2023-04-24T11:00:56;10;10;
64229;PMS5003;50547;49.498;0.092;2023-04-24T11:03:31;10;10;
64229;PMS5003;50547;49.498;0.092;2023-04-24T11:06:01;10;10;
64229;PMS5003;50547;49.498;0.092;2023-04-24T11:08:37;10;10;
64229;PMS5003;50547;49.498;0.092;2023-04-24T11:11:09;10;10;
64229;PMS5003;50547;49.498;0.092;2023-04-24T11:14:13;10;10;
64229;PMS5003;50547;49.498;0.092;2023-04-24T11:16:44;10;10;
64229;PMS5003;50547;49.498;0.092;2023-04-24T11:19:18;10;10;
64229;PMS5003;50547;49.498;0.092;2023-04-24T11:21:54;10;10;
64229;PMS5003;50547;49.498;0.092;2023-04-24T11:24:25;10;10;
64229;PMS5003;50547;49.498;0.092;2023-04-24T11:26:57;10;10;
64229;PMS5003;50547;49.498;0.092;2023-04-24T11:29:45;10;10;
64229;PMS5003;50547;49.498;0.092;2023-04-24T11:32:19;10;10;
64229;PMS5003;50547;49.498;0.092;2023-04-24T11:34:53;10;10;
64229;PMS5003;50547;49.498;0.092;2023-04-24T11:37:25;10;10;
64229;PMS5003;50547;49.498;0.092;2023-04-24T11:39:56;10;10;
64229;PMS5003;50547;49.498;0.092;2023-04-24T11:42:26;10;10;
64229;PMS5003;50547;49.498;0.092;2023-04-24T11:44:56;10;10;
64229;PMS5003;50547;49.498;0.092;2023-04-24T11:47:29;10;10;
64229;PMS5003;50547;49.498;0.092;2023-04-24T11:49:58;10;10;
64229;PMS5003;50547;49.498;0.092;2023-04-24T11:52:29;10;10;
64229;PMS5003;50547;49.498;0.092;2023-04-24T11:54:59;10;10;
64229;PMS5003;50547;49.498;0.092;2023-04-24T11:57:28;10;10;
64229;PMS5003;50547;49.498;0.092;2023-04-24T11:59:58;10;10;
64229;PMS5003;50547;49.498;0.092;2023-04-24T12:02:27;10;10;
64229;PMS5003;50547;49.498;0.092;2023-04-24T12:04:56;9;9;
64229;PMS5003;50547;49.498;0.092;2023-04-24T12:07:25;10;10;
64229;PMS5003;50547;49.498;0.092;2023-04-24T12:09:55;10;10;
64229;PMS5003;50547;49.498;0.092;2023-04-24T12:12:26;10;10;
64229;PMS5003;50547;49.498;0.092;2023-04-24T12:14:56;10;10;
64229;PMS5003;50547;49.498;0.092;2023-04-24T12:17:27;10;10;
64229;PMS5003;50547;49.498;0.092;2023-04-24T12:19:57;10;10;
64229;PMS5003;50547;49.498;0.092;2023-04-24T12:22:28;10;10;
64229;PMS5003;50547;49.498;0.092;2023-04-24T12:25:11;10;10;
64229;PMS5003;50547;49.498;0.092;2023-04-24T12:27:40;8;8;
64229;PMS5003;50547;49.498;0.092;2023-04-24T12:30:11;10;10;
64229;PMS5003;50547;49.498;0.092;2023-04-24T12:32:42;10;10;
64229;PMS5003;50547;49.498;0.092;2023-04-24T12:35:12;10;10;
64229;PMS5003;50547;49.498;0.092;2023-04-24T12:37:42;10;10;
64229;PMS5003;50547;49.498;0.092;2023-04-24T12:40:12;9;9;
64229;PMS5003;50547;49.498;0.092;2023-04-24T12:42:42;10;10;
64229;PMS5003;50547;49.498;0.092;2023-04-24T12:45:13;10;10;
64229;PMS5003;50547;49.498;0.092;2023-04-24T12:47:44;10;10;
64229;PMS5003;50547;49.498;0.092;2023-04-24T12:50:15;10;10;
64229;PMS5003;50547;49.498;0.092;2023-04-24T12:52:44;10;10;
64229;PMS5003;50547;49.498;0.092;2023-04-24T12:55:14;10;10;
64229;PMS5003;50547;49.498;0.092;2023-04-24T12:57:43;10;10;
64229;PMS5003;50547;49.498;0.092;2023-04-24T13:00:12;10;10;
64229;PMS5003;50547;49.498;0.092;2023-04-24T13:02:38;10;10;
64229;PMS5003;50547;49.498;0.092;2023-04-24T13:05:08;10;10;
64229;PMS5003;50547;49.498;0.092;2023-04-24T13:07:37;10;10;
64229;PMS5003;50547;49.498;0.092;2023-04-24T13:10:07;10;10;
64229;PMS5003;50547;49.498;0.092;2023-04-24T13:12:36;10;10;
64229;PMS5003;50547;49.498;0.092;2023-04-24T13:15:06;10;10;
64229;PMS5003;50547;49.498;0.092;2023-04-24T13:17:36;10;10;
64229;PMS5003;50547;49.498;0.092;2023-04-24T13:20:05;10;10;
64229;PMS5003;50547;49.498;0.092;2023-04-24T13:22:35;10;10;
64229;PMS5003;50547;49.498;0.092;2023-04-24T13:25:05;10;10;
64229;PMS5003;50547;49.498;0.092;2023-04-24T13:27:37;10;10;
64229;PMS5003;50547;49.498;0.092;2023-04-24T13:30:07;10;10;
64229;PMS5003;50547;49.498;0.092;2023-04-24T13:32:37;10;10;
64229;PMS5003;50547;49.498;0.092;2023-04-24T13:35:07;10;10;
64229;PMS5003;50547;49.498;0.092;2023-04-24T13:37:36;10;10;
64229;PMS5003;50547;49.498;0.092;2023-04-24T13:40:06;10;10;
64229;PMS5003;50547;49.498;0.092;2023-04-24T13:42:36;10;10;
64229;PMS5003;50547;49.498;0.092;2023-04-24T13:45:05;10;10;
64229;PMS5003;50547;49.498;0.092;2023-04-24T13:47:35;10;10;
64229;PMS5003;50547;49.498;0.092;2023-04-24T13:50:05;10;10;
64229;PMS5003;50547;49.498;0.092;2023-04-24T13:52:34;10;10;
64229;PMS5003;50547;49.498;0.092;2023-04-24T13:55:04;10;10;
64229;PMS5003;50547;49.498;0.092;2023-04-24T13:57:34;10;10;
64229;PMS5003;50547;49.498;0.092;2023-04-24T14:00:04;10;10;
64229;PMS5003;50547;49.498;0.092;2023-04-24T14:02:35;10;10;
64229;PMS5003;50547;49.498;0.092;2023-04-24T14:05:04;8;8;
64229;PMS5003;50547;49.498;0.092;2023-04-24T14:07:34;7;7;
64229;PMS5003;50547;49.498;0.092;2023-04-24T14:10:03;8;8;
64229;PMS5003;50547;49.498;0.092;2023-04-24T14:12:33;8;8;
64229;PMS5003;50547;49.498;0.092;2023-04-24T14:15:03;8;8;
64229;PMS5003;50547;49.498;0.092;2023-04-24T14:17:33;7;7;
64229;PMS5003;50547;49.498;0.092;2023-04-24T14:20:02;7;7;
64229;PMS5003;50547;49.498;0.092;2023-04-24T14:22:32;7;7;
64229;PMS5003;50547;49.498;0.092;2023-04-24T14:25:01;7;7;
64229;PMS5003;50547;49.498;0.092;2023-04-24T14:27:30;7;7;
64229;PMS5003;50547;49.498;0.092;2023-04-24T14:30:00;7;7;
64229;PMS5003;50547;49.498;0.092;2023-04-24T14:32:30;6;6;
64229;PMS5003;50547;49.498;0.092;2023-04-24T14:34:59;7;7;
64229;PMS5003;50547;49.498;0.092;2023-04-24T14:37:28;7;7;
64229;PMS5003;50547;49.498;0.092;2023-04-24T14:39:54;7;7;
64229;PMS5003;50547;49.498;0.092;2023-04-24T14:42:23;7;7;
64229;PMS5003;50547;49.498;0.092;2023-04-24T14:44:52;6;6;
64229;PMS5003;50547;49.498;0.092;2023-04-24T14:47:21;7;7;
64229;PMS5003;50547;49.498;0.092;2023-04-24T14:49:50;7;7;
64229;PMS5003;50547;49.498;0.092;2023-04-24T14:52:20;6;6;
64229;PMS5003;50547;49.498;0.092;2023-04-24T14:54:49;7;7;
64229;PMS5003;50547;49.498;0.092;2023-04-24T14:57:18;7;7;
64229;PMS5003;50547;49.498;0.092;2023-04-24T14:59:47;5;5;
64229;PMS5003;50547;49.498;0.092;2023-04-24T15:02:16;6;6;
64229;PMS5003;50547;49.498;0.092;2023-04-24T15:04:45;5;5;
64229;PMS5003;50547;49.498;0.092;2023-04-24T15:07:14;6;6;
64229;PMS5003;50547;49.498;0.092;2023-04-24T15:09:44;6;6;
64229;PMS5003;50547;49.498;0.092;2023-04-24T15:12:13;7;7;
64229;PMS5003;50547;49.498;0.092;2023-04-24T15:14:42;7;7;
64229;PMS5003;50547;49.498;0.092;2023-04-24T15:17:11;7;7;
64229;PMS5003;50547;49.498;0.092;2023-04-24T15:19:41;7;7;
64229;PMS5003;50547;49.498;0.092;2023-04-24T15:22:10;9;9;
64229;PMS5003;50547;49.498;0.092;2023-04-24T15:24:39;7;7;
64229;PMS5003;50547;49.498;0.092;2023-04-24T15:27:09;7;7;
64229;PMS5003;50547;49.498;0.092;2023-04-24T15:29:38;8;8;
64229;PMS5003;50547;49.498;0.092;2023-04-24T15:32:08;8;8;
64229;PMS5003;50547;49.498;0.092;2023-04-24T15:34:37;7;7;
64229;PMS5003;50547;49.498;0.092;2023-04-24T15:37:06;7;7;
64229;PMS5003;50547;49.498;0.092;2023-04-24T15:39:56;7;7;
64229;PMS5003;50547;49.498;0.092;2023-04-24T15:42:25;7;7;
64229;PMS5003;50547;49.498;0.092;2023-04-24T15:44:52;7;7;
64229;PMS5003;50547;49.498;0.092;2023-04-24T15:47:21;6;6;
64229;PMS5003;50547;49.498;0.092;2023-04-24T15:49:51;6;6;
64229;PMS5003;50547;49.498;0.092;2023-04-24T15:52:20;7;7;
64229;PMS5003;50547;49.498;0.092;2023-04-24T15:54:49;7;7;
64229;PMS5003;50547;49.498;0.092;2023-04-24T15:57:23;8;8;
64229;PMS5003;50547;49.498;0.092;2023-04-24T15:59:53;6;6;
64229;PMS5003;50547;49.498;0.092;2023-04-24T16:02:22;6;6;
64229;PMS5003;50547;49.498;0.092;2023-04-24T16:04:51;6;6;
64229;PMS5003;50547;49.498;0.092;2023-04-24T16:07:20;7;7;
64229;PMS5003;50547;49.498;0.092;2023-04-24T16:09:49;8;8;
64229;PMS5003;50547;49.498;0.092;2023-04-24T16:12:18;7;7;
64229;PMS5003;50547;49.498;0.092;2023-04-24T16:14:48;7;7;
64229;PMS5003;50547;49.498;0.092;2023-04-24T16:17:17;7;7;
64229;PMS5003;50547;49.498;0.092;2023-04-24T16:19:46;8;8;
64229;PMS5003;50547;49.498;0.092;2023-04-24T16:22:13;7;7;
64229;PMS5003;50547;49.498;0.092;2023-04-24T16:24:53;7;7;
64229;PMS5003;50547;49.498;0.092;2023-04-24T16:27:22;7;7;
64229;PMS5003;50547;49.498;0.092;2023-04-24T16:29:51;7;7;
64229;PMS5003;50547;49.498;0.092;2023-04-24T16:32:20;8;8;
64229;PMS5003;50547;49.498;0.092;2023-04-24T16:34:49;7;7;
64229;PMS5003;50547;49.498;0.092;2023-04-24T16:37:19;7;7;
64229;PMS5003;50547;49.498;0.092;2023-04-24T16:39:48;7;7;